Bluesette — PI4132 — position and weather

sailwx.info

Track history (hours):
 
Tides and Currents Weather Stations Pressure Air Temp Water Temp Dewpoint Dewpoint Depression Visibility Wind Speed Wind Dir Waves Ship Positions

Bluesette

Last reported at 2018-May-09 12:06 UTC. Time now 2018-Jun-19 01:20 UTC.
Position N 43°38' W 005°45'.
Warning: this ship's position is 40 days out of date.

Length 12 m.

Type: Sailing vessel. MMSI: 244087083.

Date/timePositionNaut miles runAvg speedWind from/ knotsBaromVisibWave heightAir tempDewpointWater temp
2018-May-09 12:06N 43°38' W 005°45'1 5.9
2018-May-09 11:57N 43°38' W 005°44'4 5.9
2018-May-09 11:16N 43°35' W 005°40'  
2018-May-06 07:37N 45°60' W 001°33'1 6.5
2018-May-06 07:29N 46°00' W 001°32'3 6.5
2018-May-06 07:00N 46°02' W 001°29'3 6.4
2018-May-06 06:30N 46°04' W 001°25'3 5.7
2018-May-06 06:00N 46°03' W 001°21'1 2.7
2018-May-06 05:30N 46°02' W 001°22'0 0.0
2018-May-04 19:41N 46°02' W 001°22'0 0.0
2018-May-04 19:29N 46°02' W 001°22'0 0.0
2018-May-04 18:59N 46°02' W 001°22'0 0.0
2018-May-04 18:29N 46°02' W 001°22'0 0.0
2018-May-04 17:59N 46°02' W 001°22'0 0.0
2018-May-04 17:02N 46°02' W 001°22'0 0.0
2018-May-04 16:56N 46°02' W 001°22'0 0.0
2018-May-04 16:29N 46°02' W 001°22'0 0.1
2018-May-04 15:58N 46°02' W 001°22'0 0.9
2018-May-04 15:29N 46°02' W 001°22'0 0.2
2018-May-04 14:56N 46°02' W 001°21'0 0.2
2018-May-04 14:30N 46°02' W 001°21'0 0.1
2018-May-04 14:00N 46°02' W 001°21'0 0.0
2018-May-04 13:30N 46°02' W 001°21'0 0.0
2018-May-04 13:00N 46°02' W 001°21'0 0.3
2018-May-04 12:31N 46°02' W 001°22'0 0.2
2018-May-04 11:58N 46°02' W 001°21'0 0.0
2018-May-04 11:28N 46°02' W 001°21'0 0.0
2018-May-04 10:58N 46°02' W 001°21'0 0.0
2018-May-04 10:28N 46°02' W 001°21'1 3.2
2018-May-04 10:00N 46°03' W 001°19'2 3.8
2018-May-04 09:30N 46°03' W 001°17'3 4.8
2018-May-04 08:54N 46°01' W 001°13'3 6.8
2018-May-04 08:30N 45°60' W 001°10'  
Track history (hours):
 
Tides and Currents Weather Stations Pressure Air Temp Water Temp Dewpoint Dewpoint Depression Visibility Wind Speed Wind Dir Waves Ship Positions

Bluesette

Last reported at 2018-May-09 12:06 UTC. Time now 2018-Jun-19 01:20 UTC.
Position N 43°38' W 005°45'.
Warning: this ship's position is 40 days out of date.

Length 12 m.

Type: Sailing vessel. MMSI: 244087083.

Date/timePositionNaut miles runAvg speedWind from/ knotsBaromVisibWave heightAir tempDewpointWater temp
2018-May-09 12:06N 43°38' W 005°45'1 5.9
2018-May-09 11:57N 43°38' W 005°44'4 5.9
2018-May-09 11:16N 43°35' W 005°40'  
2018-May-06 07:37N 45°60' W 001°33'1 6.5
2018-May-06 07:29N 46°00' W 001°32'3 6.5
2018-May-06 07:00N 46°02' W 001°29'3 6.4
2018-May-06 06:30N 46°04' W 001°25'3 5.7
2018-May-06 06:00N 46°03' W 001°21'1 2.7
2018-May-06 05:30N 46°02' W 001°22'0 0.0
2018-May-04 19:41N 46°02' W 001°22'0 0.0
2018-May-04 19:29N 46°02' W 001°22'0 0.0
2018-May-04 18:59N 46°02' W 001°22'0 0.0
2018-May-04 18:29N 46°02' W 001°22'0 0.0
2018-May-04 17:59N 46°02' W 001°22'0 0.0
2018-May-04 17:02N 46°02' W 001°22'0 0.0
2018-May-04 16:56N 46°02' W 001°22'0 0.0
2018-May-04 16:29N 46°02' W 001°22'0 0.1
2018-May-04 15:58N 46°02' W 001°22'0 0.9
2018-May-04 15:29N 46°02' W 001°22'0 0.2
2018-May-04 14:56N 46°02' W 001°21'0 0.2
2018-May-04 14:30N 46°02' W 001°21'0 0.1
2018-May-04 14:00N 46°02' W 001°21'0 0.0
2018-May-04 13:30N 46°02' W 001°21'0 0.0
2018-May-04 13:00N 46°02' W 001°21'0 0.3
2018-May-04 12:31N 46°02' W 001°22'0 0.2
2018-May-04 11:58N 46°02' W 001°21'0 0.0
2018-May-04 11:28N 46°02' W 001°21'0 0.0
2018-May-04 10:58N 46°02' W 001°21'0 0.0
2018-May-04 10:28N 46°02' W 001°21'1 3.2
2018-May-04 10:00N 46°03' W 001°19'2 3.8
2018-May-04 09:30N 46°03' W 001°17'3 4.8
2018-May-04 08:54N 46°01' W 001°13'3 6.8
2018-May-04 08:30N 45°60' W 001°10'  

Dump ship's entire track history